Terminal Aerodrome Forecast
Issued by NWS Omaha/Valley, NE

Home | Current Version | Previous Version | Text Only | Print | Product List | Glossary On
Versions: 1 2 3 4 5 6 7 8 9 10 11 12 13 14 15 16 17 18 19 20 21 22 23 24 25 26 27 28 29
876
FTUS43 KOAX 272143 AAB
TAFOMA
TAF AMD
KOMA 272143Z 2722/2818 15013G20KT P6SM BKN050
      TEMPO 2801/2803 BKN030
     FM280700 15008KT 4SM BR SCT009 BKN015
     FM281000 18006KT 4SM BR SCT007 BKN080
     FM281300 22006KT 4SM BR BKN020
     FM281500 30010KT P6SM BKN025=

USA.gov is the U.S. government's official web portal to all federal, state and local government web resources and services.